Second Valley Forest, Australia

12:44 PM ACDT on March 24, 2017 (GMT +1030)
Lower Inman Valley - Crozier Hill | | Change Station

Elev 361 ft 35.54 °S, 138.59 °E | Updated 39 seconds ago

Partly Cloudy
Partly Cloudy
85.5 °F
Feels Like 85 °F
N
5.4
Wind Variable Wind from NE
Gusts 7.6 mph

Today
High -- | Low -- °F
--% Chance of Precip.
Yesterday
High -- | Low -- °F
Precip. -- in
Pressure 29.92 in
Visibility -9999.0 miles
Clouds
Heat Index 85 °F
Dew Point 60 °F
Humidity 42%
Rainfall 0.00 in
Snow Depth Not available.
7:23 AM 7:22 PM
Waning Crescent, 19% visible
METAR YPAD 240200Z 02009KT CAVOK 30/15 Q1013 FM0300 23010KT CAVOK
Pressure 29.92 in
Visibility -9999.0 miles
Clouds
Heat Index 85 °F
Dew Point 60 °F
Humidity 42%
Rainfall 0.00 in
Snow Depth Not available.
7:23 AM 7:22 PM
Waning Crescent, 19% visible
METAR YPAD 240200Z 02009KT CAVOK 30/15 Q1013 FM0300 23010KT CAVOK

Get Severe Weather Alerts

Thanks for signing up!

Be on the lookout for a verification email in your inbox.

You'll start receiving the daily forecast at 8 AM.

×

10-Day Weather Forecast

×

Almanac

Astronomy

Mar. 24, 2017 Rise Set
Actual Time
Civil Twilight
Nautical Twilight
Astronomical Twilight
Moon
Length of Visible Light
Length of Day
Tomorrow will be .
, % of the Moon is Illuminated

Today's Extremes

Country Highs Country Lows

Community

WunderPhotos

Upload Photos

1,962,540 photos uploaded!

WunderBlog® & News

Nearby

Air Quality

  Air Quality AQ Index Pollutant
Not available.

Snow Depth

Station Depth Elevation

Earthquake Activity

City Distance Mag. Time & Date
Minimum magnitude displayed is 2.5.

Earthquake Activity

City Distance Mag. Time & Date
Minimum magnitude displayed is 2.5.

Coastal Water Temperatures

Place Temperature

Stations

Nearby Weather Stations

Station Location Temp. Windchill Dew Point Humidity Wind Precip. Elev Updated Type